All Spectrum Aviation - Van Nuys Airport - KVNY

HOME

Van Nuys Tower Recordings

Condor Squadron KVNY Webcam

Visit our Electronics Store

Condor Squadron Webcam - Van Nuys Airport - KVNY
Picture taken: Thu, 18 Jan 2018 13:40:27 -0800
YouTube Channel!    Latest Timelapse Movie    Full Size Image    Regular Size Image    

2018/01/18 20:51 KVNY 182051Z 19006KT 10SM CLR 24/04 A3005 RMK AO2 SLP169 T02440044 58021

HOME

Van Nuys Tower Recordings

Condor Squadron KVNY Webcam

Visit our Electronics Store